XS68 weather

Sky Lane Ranch Airport
Brenham, Texas, United States

Public forecast

Using degrees Fahrenheit for public forecast. Weather courtesy of forecast.io.

METAR (pilot weather report)

Closest report is Brenham Municipal Airport, 3.3 nm (6.1 km) SW. Retrieved 2019/07/21 09:35 UTC (12 minutes ago):

K11R 210935Z AUTO 00000KT 7SM CLR 24/24 A2996 RMK AO2 T02410241

TAF (pilot weather forecast)

Closest forecast is Easterwood Field, 20.0 nm (37.0 km) N. Retrieved 2019/07/21 06:22 UTC (3 hours ago):

TAF KCLL 210520Z 2106/2206 17009KT P6SM FEW250 FM210800 18004KT P6SM SCT015 FM211000 VRB04KT P6SM SCT008 BKN015 FM211500 19007KT P6SM SCT025 FM212100 16009KT P6SM VCTS SCT040CB BKN250 FM220100 18005KT P6SM SCT250